Time,TemperatureF,DewpointF,PressureIn,WindDirection,WindDirectionDegrees,WindSpeedMPH,WindSpeedGustMPH,Humidity,HourlyPrecipIn,Conditions,Clouds,dailyrainin,SoftwareType,DateUTC
2014-12-29 02:08:00,49.5,48.1,30.04,NW,312,1.0,5.0,95,0.00,,,0.03,VWS V15.00,2014-12-29 07:08:00,
2014-12-29 02:30:00,49.5,47.6,30.04,NW,315,2.0,11.0,93,0.00,,,0.00,VWS V15.00,2014-12-29 07:30:00,
2014-12-29 03:00:00,48.7,47.0,30.03,NW,315,2.0,7.0,94,0.01,,,0.01,VWS V15.00,2014-12-29 08:00:00,
2014-12-29 03:30:00,48.1,46.5,30.04,NNW,338,2.0,6.0,94,0.01,,,0.01,VWS V15.00,2014-12-29 08:30:00,
2014-12-29 04:00:00,47.7,45.8,30.05,NNW,338,3.0,10.0,93,0.01,,,0.01,VWS V15.00,2014-12-29 09:00:00,
2014-12-29 04:09:00,49.5,48.1,30.04,NW,312,1.0,5.0,95,0.00,,,0.03,VWS V15.00,2014-12-29 09:09:00,
2014-12-29 04:14:00,42.7,40.3,30.08,NNW,334,0.0,4.0,91,0.02,,,0.03,VWS V15.00,2014-12-29 09:14:00,
2014-12-29 04:19:00,42.7,40.5,30.08,NNW,333,2.0,5.0,92,0.02,,,0.03,VWS V15.00,2014-12-29 09:19:00,
2014-12-29 04:24:00,42.7,40.5,30.08,NNW,347,0.0,5.0,92,0.02,,,0.03,VWS V15.00,2014-12-29 09:24:00,
2014-12-29 04:29:00,42.6,40.4,30.08,NW,312,2.0,6.0,92,0.02,,,0.03,VWS V15.00,2014-12-29 09:29:00,
2014-12-29 04:34:00,42.6,40.4,30.08,NW,313,0.0,5.0,92,0.00,,,0.03,VWS V15.00,2014-12-29 09:34:00,
2014-12-29 04:39:00,42.6,40.4,30.08,North,355,3.0,6.0,92,0.00,,,0.03,VWS V15.00,2014-12-29 09:39:00,
2014-12-29 04:44:00,42.6,40.4,30.08,NW,317,3.0,6.0,92,0.00,,,0.03,VWS V15.00,2014-12-29 09:44:00,
2014-12-29 04:49:00,42.5,40.3,30.08,NNW,341,0.0,6.0,92,0.00,,,0.03,VWS V15.00,2014-12-29 09:49:00,
2014-12-29 04:54:00,42.5,40.3,30.08,NNW,337,0.0,6.0,92,0.00,,,0.03,VWS V15.00,2014-12-29 09:54:00,
2014-12-29 04:59:00,42.5,40.3,30.08,NW,311,0.0,7.0,92,0.00,,,0.03,VWS V15.00,2014-12-29 09:59:00,
2014-12-29 05:04:00,42.5,40.3,30.09,NW,307,4.0,8.0,92,0.00,,,0.03,VWS V15.00,2014-12-29 10:04:00,
2014-12-29 05:09:00,42.5,40.3,30.10,WNW,291,4.0,8.0,92,0.00,,,0.03,VWS V15.00,2014-12-29 10:09:00,
2014-12-29 05:14:00,42.5,40.3,30.11,WNW,303,1.0,8.0,92,0.00,,,0.03,VWS V15.00,2014-12-29 10:14:00,
2014-12-29 05:19:00,42.4,40.0,30.11,NNW,333,3.0,8.0,91,0.00,,,0.03,VWS V15.00,2014-12-29 10:19:00,
2014-12-29 05:24:00,42.4,40.0,30.12,NNW,334,3.0,8.0,91,0.00,,,0.03,VWS V15.00,2014-12-29 10:24:00,
2014-12-29 05:29:00,42.4,40.0,30.12,NNW,339,3.0,8.0,91,0.00,,,0.03,VWS V15.00,2014-12-29 10:29:00,
2014-12-29 05:34:00,42.5,40.1,30.13,NW,317,2.0,5.0,91,0.00,,,0.03,VWS V15.00,2014-12-29 10:34:00,
2014-12-29 05:39:00,42.4,40.0,30.12,NW,317,3.0,8.0,91,0.01,,,0.04,VWS V15.00,2014-12-29 10:39:00,
2014-12-29 05:44:00,42.4,40.2,30.12,NNW,331,2.0,8.0,92,0.01,,,0.04,VWS V15.00,2014-12-29 10:44:00,
2014-12-29 05:49:00,42.4,40.2,30.12,NNW,342,3.0,8.0,92,0.01,,,0.04,VWS V15.00,2014-12-29 10:49:00,
2014-12-29 05:54:00,42.3,40.2,30.12,NNE,15,2.0,8.0,92,0.01,,,0.04,VWS V15.00,2014-12-29 10:54:00,
2014-12-29 05:59:00,42.3,40.2,30.11,North,354,2.0,8.0,92,0.01,,,0.04,VWS V15.00,2014-12-29 10:59:00,